sensor_id;sensor_type;location;lat;lon;timestamp;P1;durP1;ratioP1;P2;durP2;ratioP2
17207;SDS011;8720;48.488;9.202;2024-01-15T00:01:20;25.35;;;11.20;;
17207;SDS011;8720;48.488;9.202;2024-01-15T00:03:49;25.27;;;11.90;;
17207;SDS011;8720;48.488;9.202;2024-01-15T00:06:17;16.00;;;9.95;;
17207;SDS011;8720;48.488;9.202;2024-01-15T00:08:45;23.17;;;12.00;;
17207;SDS011;8720;48.488;9.202;2024-01-15T00:11:13;22.52;;;11.20;;
17207;SDS011;8720;48.488;9.202;2024-01-15T00:13:40;19.33;;;11.10;;
17207;SDS011;8720;48.488;9.202;2024-01-15T00:16:09;19.77;;;11.38;;
17207;SDS011;8720;48.488;9.202;2024-01-15T00:18:38;22.98;;;12.45;;
17207;SDS011;8720;48.488;9.202;2024-01-15T00:21:07;23.15;;;12.00;;
17207;SDS011;8720;48.488;9.202;2024-01-15T00:23:36;20.73;;;11.95;;
17207;SDS011;8720;48.488;9.202;2024-01-15T00:26:08;22.73;;;12.38;;
17207;SDS011;8720;48.488;9.202;2024-01-15T00:28:35;23.55;;;11.57;;
17207;SDS011;8720;48.488;9.202;2024-01-15T00:31:03;23.33;;;13.03;;
17207;SDS011;8720;48.488;9.202;2024-01-15T00:33:31;18.65;;;11.68;;
17207;SDS011;8720;48.488;9.202;2024-01-15T00:35:59;22.10;;;12.13;;
17207;SDS011;8720;48.488;9.202;2024-01-15T00:38:28;24.70;;;12.70;;
17207;SDS011;8720;48.488;9.202;2024-01-15T00:40:55;20.10;;;11.40;;
17207;SDS011;8720;48.488;9.202;2024-01-15T00:43:22;24.70;;;11.37;;
17207;SDS011;8720;48.488;9.202;2024-01-15T00:45:49;17.13;;;10.10;;
17207;SDS011;8720;48.488;9.202;2024-01-15T00:48:17;22.10;;;11.47;;
17207;SDS011;8720;48.488;9.202;2024-01-15T00:50:44;19.17;;;10.55;;
17207;SDS011;8720;48.488;9.202;2024-01-15T00:53:12;16.73;;;10.13;;
17207;SDS011;8720;48.488;9.202;2024-01-15T00:55:43;19.85;;;11.13;;
17207;SDS011;8720;48.488;9.202;2024-01-15T00:58:11;17.13;;;10.23;;
17207;SDS011;8720;48.488;9.202;2024-01-15T01:00:38;20.70;;;10.15;;
17207;SDS011;8720;48.488;9.202;2024-01-15T01:03:08;17.90;;;11.25;;
17207;SDS011;8720;48.488;9.202;2024-01-15T01:05:35;18.13;;;9.43;;
17207;SDS011;8720;48.488;9.202;2024-01-15T01:08:04;18.47;;;10.17;;
17207;SDS011;8720;48.488;9.202;2024-01-15T01:10:32;16.23;;;9.00;;
17207;SDS011;8720;48.488;9.202;2024-01-15T01:13:01;18.50;;;9.43;;
17207;SDS011;8720;48.488;9.202;2024-01-15T01:15:31;19.43;;;9.63;;
17207;SDS011;8720;48.488;9.202;2024-01-15T01:17:58;17.97;;;10.53;;
17207;SDS011;8720;48.488;9.202;2024-01-15T01:20:27;15.80;;;8.67;;
17207;SDS011;8720;48.488;9.202;2024-01-15T01:22:55;16.03;;;9.40;;
17207;SDS011;8720;48.488;9.202;2024-01-15T01:25:22;17.25;;;9.02;;
17207;SDS011;8720;48.488;9.202;2024-01-15T01:27:49;17.63;;;9.80;;
17207;SDS011;8720;48.488;9.202;2024-01-15T01:30:18;19.02;;;10.45;;
17207;SDS011;8720;48.488;9.202;2024-01-15T01:32:50;18.03;;;9.87;;
17207;SDS011;8720;48.488;9.202;2024-01-15T01:35:17;16.45;;;9.10;;
17207;SDS011;8720;48.488;9.202;2024-01-15T01:37:44;15.75;;;9.80;;
17207;SDS011;8720;48.488;9.202;2024-01-15T01:40:12;15.10;;;8.40;;
17207;SDS011;8720;48.488;9.202;2024-01-15T01:42:39;15.70;;;9.40;;
17207;SDS011;8720;48.488;9.202;2024-01-15T01:45:07;16.27;;;9.02;;
17207;SDS011;8720;48.488;9.202;2024-01-15T01:47:36;18.17;;;9.55;;
17207;SDS011;8720;48.488;9.202;2024-01-15T01:50:06;19.43;;;9.63;;
17207;SDS011;8720;48.488;9.202;2024-01-15T01:52:35;16.02;;;8.98;;
17207;SDS011;8720;48.488;9.202;2024-01-15T01:55:03;20.83;;;9.93;;
17207;SDS011;8720;48.488;9.202;2024-01-15T01:57:33;19.30;;;9.35;;
17207;SDS011;8720;48.488;9.202;2024-01-15T02:00:02;19.20;;;9.70;;
17207;SDS011;8720;48.488;9.202;2024-01-15T02:02:38;16.57;;;10.13;;
17207;SDS011;8720;48.488;9.202;2024-01-15T02:05:06;17.30;;;10.43;;
17207;SDS011;8720;48.488;9.202;2024-01-15T02:07:35;16.27;;;8.90;;
17207;SDS011;8720;48.488;9.202;2024-01-15T02:10:03;14.83;;;8.33;;
17207;SDS011;8720;48.488;9.202;2024-01-15T02:12:32;17.70;;;8.17;;
17207;SDS011;8720;48.488;9.202;2024-01-15T02:14:59;16.90;;;9.40;;
17207;SDS011;8720;48.488;9.202;2024-01-15T02:17:27;15.30;;;8.50;;
17207;SDS011;8720;48.488;9.202;2024-01-15T02:19:55;17.03;;;8.20;;
17207;SDS011;8720;48.488;9.202;2024-01-15T02:22:24;16.87;;;8.80;;
17207;SDS011;8720;48.488;9.202;2024-01-15T02:24:52;17.10;;;9.10;;
17207;SDS011;8720;48.488;9.202;2024-01-15T02:27:21;15.13;;;9.10;;
17207;SDS011;8720;48.488;9.202;2024-01-15T02:29:48;17.17;;;8.47;;
17207;SDS011;8720;48.488;9.202;2024-01-15T02:32:19;17.20;;;10.00;;
17207;SDS011;8720;48.488;9.202;2024-01-15T02:34:46;14.80;;;8.40;;
17207;SDS011;8720;48.488;9.202;2024-01-15T02:37:14;19.30;;;9.43;;
17207;SDS011;8720;48.488;9.202;2024-01-15T02:39:41;15.30;;;8.80;;
17207;SDS011;8720;48.488;9.202;2024-01-15T02:42:10;15.13;;;8.80;;
17207;SDS011;8720;48.488;9.202;2024-01-15T02:44:37;20.63;;;9.50;;
17207;SDS011;8720;48.488;9.202;2024-01-15T02:47:04;14.87;;;8.90;;
17207;SDS011;8720;48.488;9.202;2024-01-15T02:49:32;15.50;;;8.97;;
17207;SDS011;8720;48.488;9.202;2024-01-15T02:51:59;17.47;;;8.67;;
17207;SDS011;8720;48.488;9.202;2024-01-15T02:54:27;16.20;;;8.83;;
17207;SDS011;8720;48.488;9.202;2024-01-15T02:56:54;16.60;;;9.03;;
17207;SDS011;8720;48.488;9.202;2024-01-15T02:59:23;15.67;;;8.20;;
17207;SDS011;8720;48.488;9.202;2024-01-15T03:01:50;15.73;;;8.47;;
17207;SDS011;8720;48.488;9.202;2024-01-15T03:04:17;16.33;;;8.13;;
17207;SDS011;8720;48.488;9.202;2024-01-15T03:06:45;16.90;;;7.88;;
17207;SDS011;8720;48.488;9.202;2024-01-15T03:09:12;15.68;;;8.68;;
17207;SDS011;8720;48.488;9.202;2024-01-15T03:11:40;13.25;;;8.40;;
17207;SDS011;8720;48.488;9.202;2024-01-15T03:14:08;14.40;;;8.10;;
17207;SDS011;8720;48.488;9.202;2024-01-15T03:16:36;15.80;;;7.93;;
17207;SDS011;8720;48.488;9.202;2024-01-15T03:19:04;14.33;;;7.80;;
17207;SDS011;8720;48.488;9.202;2024-01-15T03:21:31;13.33;;;8.10;;
17207;SDS011;8720;48.488;9.202;2024-01-15T03:23:58;14.10;;;8.13;;
17207;SDS011;8720;48.488;9.202;2024-01-15T03:26:26;16.20;;;7.82;;
17207;SDS011;8720;48.488;9.202;2024-01-15T03:28:53;16.10;;;8.95;;
17207;SDS011;8720;48.488;9.202;2024-01-15T03:31:20;16.98;;;8.25;;
17207;SDS011;8720;48.488;9.202;2024-01-15T03:33:49;16.60;;;8.88;;
17207;SDS011;8720;48.488;9.202;2024-01-15T03:36:16;14.93;;;8.37;;
17207;SDS011;8720;48.488;9.202;2024-01-15T03:38:44;17.30;;;8.17;;
17207;SDS011;8720;48.488;9.202;2024-01-15T03:41:12;15.67;;;8.13;;
17207;SDS011;8720;48.488;9.202;2024-01-15T03:43:39;15.10;;;8.10;;
17207;SDS011;8720;48.488;9.202;2024-01-15T03:46:06;19.90;;;9.03;;
17207;SDS011;8720;48.488;9.202;2024-01-15T03:48:34;17.30;;;9.53;;
17207;SDS011;8720;48.488;9.202;2024-01-15T03:51:03;19.47;;;8.43;;
17207;SDS011;8720;48.488;9.202;2024-01-15T03:53:30;16.47;;;9.03;;
17207;SDS011;8720;48.488;9.202;2024-01-15T03:55:58;13.33;;;8.20;;
17207;SDS011;8720;48.488;9.202;2024-01-15T03:58:25;19.23;;;9.57;;
17207;SDS011;8720;48.488;9.202;2024-01-15T04:00:53;17.60;;;8.30;;
17207;SDS011;8720;48.488;9.202;2024-01-15T04:03:20;19.33;;;10.17;;
17207;SDS011;8720;48.488;9.202;2024-01-15T04:05:47;16.87;;;9.33;;
17207;SDS011;8720;48.488;9.202;2024-01-15T04:08:16;15.73;;;8.47;;
17207;SDS011;8720;48.488;9.202;2024-01-15T04:10:43;17.10;;;9.40;;
17207;SDS011;8720;48.488;9.202;2024-01-15T04:13:10;21.20;;;9.70;;
17207;SDS011;8720;48.488;9.202;2024-01-15T04:15:38;14.57;;;8.30;;
17207;SDS011;8720;48.488;9.202;2024-01-15T04:18:05;19.83;;;9.63;;
17207;SDS011;8720;48.488;9.202;2024-01-15T04:20:33;16.53;;;10.80;;
17207;SDS011;8720;48.488;9.202;2024-01-15T04:23:00;22.03;;;10.10;;
17207;SDS011;8720;48.488;9.202;2024-01-15T04:25:29;18.60;;;9.10;;
17207;SDS011;8720;48.488;9.202;2024-01-15T04:27:56;20.13;;;10.40;;
17207;SDS011;8720;48.488;9.202;2024-01-15T04:30:24;21.40;;;9.77;;
17207;SDS011;8720;48.488;9.202;2024-01-15T04:32:51;17.77;;;9.17;;
17207;SDS011;8720;48.488;9.202;2024-01-15T04:35:18;16.70;;;8.90;;
17207;SDS011;8720;48.488;9.202;2024-01-15T04:37:46;19.17;;;10.70;;
17207;SDS011;8720;48.488;9.202;2024-01-15T04:40:13;17.33;;;8.80;;
17207;SDS011;8720;48.488;9.202;2024-01-15T04:42:42;18.03;;;9.50;;
17207;SDS011;8720;48.488;9.202;2024-01-15T04:45:11;19.00;;;10.13;;
17207;SDS011;8720;48.488;9.202;2024-01-15T04:47:38;18.80;;;9.53;;
17207;SDS011;8720;48.488;9.202;2024-01-15T04:50:06;17.87;;;9.30;;
17207;SDS011;8720;48.488;9.202;2024-01-15T04:52:34;20.40;;;10.93;;
17207;SDS011;8720;48.488;9.202;2024-01-15T04:55:01;20.00;;;10.30;;
17207;SDS011;8720;48.488;9.202;2024-01-15T04:57:29;19.00;;;9.27;;
17207;SDS011;8720;48.488;9.202;2024-01-15T05:00:00;18.40;;;9.60;;
17207;SDS011;8720;48.488;9.202;2024-01-15T05:02:27;24.50;;;11.37;;
17207;SDS011;8720;48.488;9.202;2024-01-15T05:04:55;18.73;;;10.20;;
17207;SDS011;8720;48.488;9.202;2024-01-15T05:07:22;18.03;;;10.43;;
17207;SDS011;8720;48.488;9.202;2024-01-15T05:09:52;20.17;;;10.67;;
17207;SDS011;8720;48.488;9.202;2024-01-15T05:12:19;19.90;;;10.40;;
17207;SDS011;8720;48.488;9.202;2024-01-15T05:14:46;18.60;;;9.73;;
17207;SDS011;8720;48.488;9.202;2024-01-15T05:17:15;17.20;;;8.70;;
17207;SDS011;8720;48.488;9.202;2024-01-15T05:19:42;21.30;;;9.60;;
17207;SDS011;8720;48.488;9.202;2024-01-15T05:22:09;22.80;;;11.13;;
17207;SDS011;8720;48.488;9.202;2024-01-15T05:24:37;21.60;;;11.07;;
17207;SDS011;8720;48.488;9.202;2024-01-15T05:27:04;18.50;;;10.10;;
17207;SDS011;8720;48.488;9.202;2024-01-15T05:29:31;20.23;;;9.73;;
17207;SDS011;8720;48.488;9.202;2024-01-15T05:31:59;18.93;;;9.90;;
17207;SDS011;8720;48.488;9.202;2024-01-15T05:34:27;19.37;;;11.53;;
17207;SDS011;8720;48.488;9.202;2024-01-15T05:36:55;15.00;;;10.83;;
17207;SDS011;8720;48.488;9.202;2024-01-15T05:39:22;20.10;;;9.70;;
17207;SDS011;8720;48.488;9.202;2024-01-15T05:41:49;18.30;;;10.17;;
17207;SDS011;8720;48.488;9.202;2024-01-15T05:44:17;15.33;;;9.60;;
17207;SDS011;8720;48.488;9.202;2024-01-15T05:46:44;17.63;;;10.33;;
17207;SDS011;8720;48.488;9.202;2024-01-15T05:49:11;17.90;;;9.80;;
17207;SDS011;8720;48.488;9.202;2024-01-15T05:51:40;17.40;;;10.23;;
17207;SDS011;8720;48.488;9.202;2024-01-15T05:54:08;16.40;;;9.50;;
17207;SDS011;8720;48.488;9.202;2024-01-15T05:56:35;15.63;;;9.27;;
17207;SDS011;8720;48.488;9.202;2024-01-15T05:59:02;19.23;;;10.13;;
17207;SDS011;8720;48.488;9.202;2024-01-15T06:01:30;16.63;;;9.37;;
17207;SDS011;8720;48.488;9.202;2024-01-15T06:03:57;16.70;;;9.00;;
17207;SDS011;8720;48.488;9.202;2024-01-15T06:06:25;17.47;;;10.10;;
17207;SDS011;8720;48.488;9.202;2024-01-15T06:08:54;14.90;;;9.83;;
17207;SDS011;8720;48.488;9.202;2024-01-15T06:11:21;16.40;;;9.70;;
17207;SDS011;8720;48.488;9.202;2024-01-15T06:13:49;19.87;;;9.73;;
17207;SDS011;8720;48.488;9.202;2024-01-15T06:16:16;16.33;;;9.27;;
17207;SDS011;8720;48.488;9.202;2024-01-15T06:18:45;20.13;;;10.97;;
17207;SDS011;8720;48.488;9.202;2024-01-15T06:21:12;20.10;;;10.00;;
17207;SDS011;8720;48.488;9.202;2024-01-15T06:23:40;18.90;;;10.17;;
17207;SDS011;8720;48.488;9.202;2024-01-15T06:26:11;17.80;;;9.60;;
17207;SDS011;8720;48.488;9.202;2024-01-15T06:28:38;17.43;;;10.90;;
17207;SDS011;8720;48.488;9.202;2024-01-15T06:31:06;17.83;;;11.50;;
17207;SDS011;8720;48.488;9.202;2024-01-15T06:33:33;16.70;;;10.23;;
17207;SDS011;8720;48.488;9.202;2024-01-15T06:36:00;18.67;;;10.70;;
17207;SDS011;8720;48.488;9.202;2024-01-15T06:38:28;16.77;;;9.80;;
17207;SDS011;8720;48.488;9.202;2024-01-15T06:40:55;18.17;;;10.60;;
17207;SDS011;8720;48.488;9.202;2024-01-15T06:43:24;18.83;;;10.60;;
17207;SDS011;8720;48.488;9.202;2024-01-15T06:45:52;16.60;;;10.10;;
17207;SDS011;8720;48.488;9.202;2024-01-15T06:48:19;21.37;;;11.03;;
17207;SDS011;8720;48.488;9.202;2024-01-15T06:50:46;15.73;;;9.43;;
17207;SDS011;8720;48.488;9.202;2024-01-15T06:53:14;20.87;;;11.33;;
17207;SDS011;8720;48.488;9.202;2024-01-15T06:55:42;19.20;;;10.90;;
17207;SDS011;8720;48.488;9.202;2024-01-15T06:58:09;20.30;;;10.87;;
17207;SDS011;8720;48.488;9.202;2024-01-15T07:00:38;18.93;;;10.60;;
17207;SDS011;8720;48.488;9.202;2024-01-15T07:03:06;18.10;;;10.90;;
17207;SDS011;8720;48.488;9.202;2024-01-15T07:05:34;19.00;;;10.97;;
17207;SDS011;8720;48.488;9.202;2024-01-15T07:08:02;17.87;;;9.93;;
17207;SDS011;8720;48.488;9.202;2024-01-15T07:10:31;14.80;;;9.03;;
17207;SDS011;8720;48.488;9.202;2024-01-15T07:12:58;15.83;;;10.00;;
17207;SDS011;8720;48.488;9.202;2024-01-15T07:15:26;14.47;;;9.23;;
17207;SDS011;8720;48.488;9.202;2024-01-15T07:17:55;13.53;;;9.27;;
17207;SDS011;8720;48.488;9.202;2024-01-15T07:20:22;14.10;;;8.80;;
17207;SDS011;8720;48.488;9.202;2024-01-15T07:22:50;13.70;;;8.77;;
17207;SDS011;8720;48.488;9.202;2024-01-15T07:25:17;13.67;;;7.80;;
17207;SDS011;8720;48.488;9.202;2024-01-15T07:27:45;12.70;;;8.00;;
17207;SDS011;8720;48.488;9.202;2024-01-15T07:30:13;12.23;;;8.07;;
17207;SDS011;8720;48.488;9.202;2024-01-15T07:32:40;14.50;;;7.97;;
17207;SDS011;8720;48.488;9.202;2024-01-15T07:35:09;13.50;;;7.67;;
17207;SDS011;8720;48.488;9.202;2024-01-15T07:37:37;12.93;;;7.37;;
17207;SDS011;8720;48.488;9.202;2024-01-15T07:40:05;11.97;;;7.87;;
17207;SDS011;8720;48.488;9.202;2024-01-15T07:42:34;10.40;;;7.10;;
17207;SDS011;8720;48.488;9.202;2024-01-15T07:45:02;11.50;;;7.00;;
17207;SDS011;8720;48.488;9.202;2024-01-15T07:47:31;10.27;;;6.40;;
17207;SDS011;8720;48.488;9.202;2024-01-15T07:49:58;11.30;;;6.63;;
17207;SDS011;8720;48.488;9.202;2024-01-15T07:52:27;9.97;;;6.37;;
17207;SDS011;8720;48.488;9.202;2024-01-15T07:54:56;10.20;;;6.47;;
17207;SDS011;8720;48.488;9.202;2024-01-15T07:57:25;8.83;;;5.43;;
17207;SDS011;8720;48.488;9.202;2024-01-15T07:59:53;9.50;;;5.77;;
17207;SDS011;8720;48.488;9.202;2024-01-15T08:02:20;10.43;;;5.87;;
17207;SDS011;8720;48.488;9.202;2024-01-15T08:04:48;13.67;;;7.10;;
17207;SDS011;8720;48.488;9.202;2024-01-15T08:07:16;8.37;;;4.97;;
17207;SDS011;8720;48.488;9.202;2024-01-15T08:09:45;8.43;;;5.30;;
17207;SDS011;8720;48.488;9.202;2024-01-15T08:12:14;6.20;;;4.67;;
17207;SDS011;8720;48.488;9.202;2024-01-15T08:14:41;6.30;;;4.73;;
17207;SDS011;8720;48.488;9.202;2024-01-15T08:17:09;8.40;;;4.60;;
17207;SDS011;8720;48.488;9.202;2024-01-15T08:19:36;9.10;;;5.80;;
17207;SDS011;8720;48.488;9.202;2024-01-15T08:22:06;11.70;;;5.80;;
17207;SDS011;8720;48.488;9.202;2024-01-15T08:24:34;6.53;;;3.83;;
17207;SDS011;8720;48.488;9.202;2024-01-15T08:27:03;7.40;;;4.10;;
17207;SDS011;8720;48.488;9.202;2024-01-15T08:29:31;5.93;;;4.30;;
17207;SDS011;8720;48.488;9.202;2024-01-15T08:32:00;7.27;;;4.00;;
17207;SDS011;8720;48.488;9.202;2024-01-15T08:34:28;8.33;;;4.87;;
17207;SDS011;8720;48.488;9.202;2024-01-15T08:36:56;6.40;;;4.13;;
17207;SDS011;8720;48.488;9.202;2024-01-15T08:39:24;9.27;;;4.60;;
17207;SDS011;8720;48.488;9.202;2024-01-15T08:41:51;8.90;;;4.80;;
17207;SDS011;8720;48.488;9.202;2024-01-15T08:44:20;6.60;;;4.53;;
17207;SDS011;8720;48.488;9.202;2024-01-15T08:46:47;9.30;;;5.20;;
17207;SDS011;8720;48.488;9.202;2024-01-15T08:49:15;7.20;;;3.93;;
17207;SDS011;8720;48.488;9.202;2024-01-15T08:51:42;4.97;;;3.20;;
17207;SDS011;8720;48.488;9.202;2024-01-15T08:54:10;7.03;;;4.43;;
17207;SDS011;8720;48.488;9.202;2024-01-15T08:56:38;6.80;;;3.97;;
17207;SDS011;8720;48.488;9.202;2024-01-15T08:59:05;4.90;;;4.03;;
17207;SDS011;8720;48.488;9.202;2024-01-15T09:01:34;4.70;;;3.73;;
17207;SDS011;8720;48.488;9.202;2024-01-15T09:04:02;4.53;;;3.93;;
17207;SDS011;8720;48.488;9.202;2024-01-15T09:06:30;5.00;;;3.57;;
17207;SDS011;8720;48.488;9.202;2024-01-15T09:08:57;4.43;;;3.20;;
17207;SDS011;8720;48.488;9.202;2024-01-15T09:11:25;4.53;;;3.50;;
17207;SDS011;8720;48.488;9.202;2024-01-15T09:13:53;4.20;;;3.20;;
17207;SDS011;8720;48.488;9.202;2024-01-15T09:16:20;5.27;;;3.80;;
17207;SDS011;8720;48.488;9.202;2024-01-15T09:18:49;4.40;;;3.37;;
17207;SDS011;8720;48.488;9.202;2024-01-15T09:21:17;5.70;;;3.80;;
17207;SDS011;8720;48.488;9.202;2024-01-15T09:23:44;5.93;;;3.80;;
17207;SDS011;8720;48.488;9.202;2024-01-15T09:26:12;3.50;;;3.20;;
17207;SDS011;8720;48.488;9.202;2024-01-15T09:28:39;5.30;;;4.10;;
17207;SDS011;8720;48.488;9.202;2024-01-15T09:31:07;6.43;;;3.50;;
17207;SDS011;8720;48.488;9.202;2024-01-15T09:33:34;4.23;;;3.30;;
17207;SDS011;8720;48.488;9.202;2024-01-15T09:36:04;4.13;;;3.10;;
17207;SDS011;8720;48.488;9.202;2024-01-15T09:38:32;4.23;;;3.47;;
17207;SDS011;8720;48.488;9.202;2024-01-15T09:41:00;4.07;;;3.30;;
17207;SDS011;8720;48.488;9.202;2024-01-15T09:43:27;7.00;;;3.13;;
17207;SDS011;8720;48.488;9.202;2024-01-15T09:45:55;4.10;;;2.73;;
17207;SDS011;8720;48.488;9.202;2024-01-15T09:48:24;4.07;;;2.47;;
17207;SDS011;8720;48.488;9.202;2024-01-15T09:50:51;4.07;;;3.07;;
17207;SDS011;8720;48.488;9.202;2024-01-15T09:53:21;4.47;;;3.30;;
17207;SDS011;8720;48.488;9.202;2024-01-15T09:55:52;4.73;;;3.20;;
17207;SDS011;8720;48.488;9.202;2024-01-15T09:58:20;3.90;;;3.50;;
17207;SDS011;8720;48.488;9.202;2024-01-15T10:00:48;6.23;;;3.97;;
17207;SDS011;8720;48.488;9.202;2024-01-15T10:03:16;5.20;;;4.17;;
17207;SDS011;8720;48.488;9.202;2024-01-15T10:05:44;5.60;;;3.70;;
17207;SDS011;8720;48.488;9.202;2024-01-15T10:08:11;5.13;;;2.77;;
17207;SDS011;8720;48.488;9.202;2024-01-15T10:10:42;4.97;;;3.37;;
17207;SDS011;8720;48.488;9.202;2024-01-15T10:13:10;4.70;;;3.67;;
17207;SDS011;8720;48.488;9.202;2024-01-15T10:15:41;6.97;;;4.00;;
17207;SDS011;8720;48.488;9.202;2024-01-15T10:18:12;4.70;;;3.30;;
17207;SDS011;8720;48.488;9.202;2024-01-15T10:20:40;5.67;;;3.80;;
17207;SDS011;8720;48.488;9.202;2024-01-15T10:23:08;3.57;;;3.10;;
17207;SDS011;8720;48.488;9.202;2024-01-15T10:25:35;5.07;;;3.10;;
17207;SDS011;8720;48.488;9.202;2024-01-15T10:28:04;4.07;;;2.80;;
17207;SDS011;8720;48.488;9.202;2024-01-15T10:30:32;3.37;;;2.60;;
17207;SDS011;8720;48.488;9.202;2024-01-15T10:33:00;5.43;;;3.20;;
17207;SDS011;8720;48.488;9.202;2024-01-15T10:35:30;4.57;;;3.40;;
17207;SDS011;8720;48.488;9.202;2024-01-15T10:38:00;3.80;;;3.13;;
17207;SDS011;8720;48.488;9.202;2024-01-15T10:40:29;3.53;;;2.70;;
17207;SDS011;8720;48.488;9.202;2024-01-15T10:42:58;4.93;;;3.10;;
17207;SDS011;8720;48.488;9.202;2024-01-15T10:45:27;4.43;;;3.03;;
17207;SDS011;8720;48.488;9.202;2024-01-15T10:47:55;6.03;;;3.70;;
17207;SDS011;8720;48.488;9.202;2024-01-15T10:50:24;5.40;;;4.13;;
17207;SDS011;8720;48.488;9.202;2024-01-15T10:52:51;5.60;;;3.73;;
17207;SDS011;8720;48.488;9.202;2024-01-15T10:55:20;3.87;;;3.40;;
17207;SDS011;8720;48.488;9.202;2024-01-15T10:57:50;4.67;;;4.00;;
17207;SDS011;8720;48.488;9.202;2024-01-15T11:00:23;4.07;;;3.23;;
17207;SDS011;8720;48.488;9.202;2024-01-15T11:02:55;6.50;;;3.77;;
17207;SDS011;8720;48.488;9.202;2024-01-15T11:05:23;4.60;;;3.70;;
17207;SDS011;8720;48.488;9.202;2024-01-15T11:07:54;5.00;;;3.57;;
17207;SDS011;8720;48.488;9.202;2024-01-15T11:10:38;3.40;;;3.10;;
17207;SDS011;8720;48.488;9.202;2024-01-15T11:13:13;5.33;;;3.07;;
17207;SDS011;8720;48.488;9.202;2024-01-15T11:15:54;4.17;;;3.20;;
17207;SDS011;8720;48.488;9.202;2024-01-15T11:18:27;3.50;;;2.77;;
17207;SDS011;8720;48.488;9.202;2024-01-15T11:23:53;3.57;;;2.60;;
17207;SDS011;8720;48.488;9.202;2024-01-15T11:26:33;4.93;;;2.67;;
17207;SDS011;8720;48.488;9.202;2024-01-15T11:29:03;5.70;;;3.50;;
17207;SDS011;8720;48.488;9.202;2024-01-15T11:34:53;3.60;;;2.70;;
17207;SDS011;8720;48.488;9.202;2024-01-15T11:37:27;3.93;;;2.70;;
17207;SDS011;8720;48.488;9.202;2024-01-15T11:40:17;4.17;;;2.80;;
17207;SDS011;8720;48.488;9.202;2024-01-15T11:42:46;4.53;;;3.00;;
17207;SDS011;8720;48.488;9.202;2024-01-15T11:45:18;3.97;;;2.50;;
17207;SDS011;8720;48.488;9.202;2024-01-15T11:48:00;3.90;;;3.03;;
17207;SDS011;8720;48.488;9.202;2024-01-15T11:50:43;4.10;;;3.23;;
17207;SDS011;8720;48.488;9.202;2024-01-15T11:53:16;3.80;;;3.07;;
17207;SDS011;8720;48.488;9.202;2024-01-15T11:55:53;3.80;;;2.40;;
17207;SDS011;8720;48.488;9.202;2024-01-15T11:58:25;5.30;;;3.53;;
17207;SDS011;8720;48.488;9.202;2024-01-15T12:00:53;4.27;;;3.30;;
17207;SDS011;8720;48.488;9.202;2024-01-15T12:03:21;5.40;;;3.60;;
17207;SDS011;8720;48.488;9.202;2024-01-15T12:05:51;3.50;;;2.70;;
17207;SDS011;8720;48.488;9.202;2024-01-15T12:08:22;6.03;;;3.93;;
17207;SDS011;8720;48.488;9.202;2024-01-15T12:10:51;5.10;;;4.00;;
17207;SDS011;8720;48.488;9.202;2024-01-15T12:13:23;4.57;;;3.47;;
17207;SDS011;8720;48.488;9.202;2024-01-15T12:15:51;3.83;;;2.67;;
17207;SDS011;8720;48.488;9.202;2024-01-15T12:18:18;5.00;;;3.10;;
17207;SDS011;8720;48.488;9.202;2024-01-15T12:20:46;4.07;;;3.47;;
17207;SDS011;8720;48.488;9.202;2024-01-15T12:23:15;4.27;;;3.87;;
17207;SDS011;8720;48.488;9.202;2024-01-15T12:25:42;6.20;;;3.57;;
17207;SDS011;8720;48.488;9.202;2024-01-15T12:28:10;4.30;;;3.43;;
17207;SDS011;8720;48.488;9.202;2024-01-15T12:30:38;4.40;;;3.30;;
17207;SDS011;8720;48.488;9.202;2024-01-15T12:33:08;5.30;;;3.40;;
17207;SDS011;8720;48.488;9.202;2024-01-15T12:35:35;3.80;;;3.30;;
17207;SDS011;8720;48.488;9.202;2024-01-15T12:38:04;4.87;;;3.67;;
17207;SDS011;8720;48.488;9.202;2024-01-15T12:40:33;5.30;;;3.40;;
17207;SDS011;8720;48.488;9.202;2024-01-15T12:43:00;5.00;;;3.70;;
17207;SDS011;8720;48.488;9.202;2024-01-15T12:45:28;5.03;;;3.23;;
17207;SDS011;8720;48.488;9.202;2024-01-15T12:47:58;5.40;;;3.47;;
17207;SDS011;8720;48.488;9.202;2024-01-15T12:50:26;5.00;;;3.80;;
17207;SDS011;8720;48.488;9.202;2024-01-15T12:52:54;4.63;;;3.37;;
17207;SDS011;8720;48.488;9.202;2024-01-15T12:55:21;5.70;;;4.20;;
17207;SDS011;8720;48.488;9.202;2024-01-15T12:57:51;5.03;;;3.33;;
17207;SDS011;8720;48.488;9.202;2024-01-15T13:00:19;5.43;;;3.00;;
17207;SDS011;8720;48.488;9.202;2024-01-15T13:02:47;5.97;;;3.67;;
17207;SDS011;8720;48.488;9.202;2024-01-15T13:05:16;6.63;;;4.80;;
17207;SDS011;8720;48.488;9.202;2024-01-15T13:07:44;6.40;;;3.70;;
17207;SDS011;8720;48.488;9.202;2024-01-15T13:10:12;5.00;;;4.13;;
17207;SDS011;8720;48.488;9.202;2024-01-15T13:12:40;6.93;;;4.17;;
17207;SDS011;8720;48.488;9.202;2024-01-15T13:15:09;6.83;;;4.77;;
17207;SDS011;8720;48.488;9.202;2024-01-15T13:17:37;8.10;;;4.83;;
17207;SDS011;8720;48.488;9.202;2024-01-15T13:20:06;7.67;;;5.13;;
17207;SDS011;8720;48.488;9.202;2024-01-15T13:22:36;6.40;;;4.53;;
17207;SDS011;8720;48.488;9.202;2024-01-15T13:25:05;6.60;;;4.60;;
17207;SDS011;8720;48.488;9.202;2024-01-15T13:27:34;5.90;;;4.40;;
17207;SDS011;8720;48.488;9.202;2024-01-15T13:30:02;6.97;;;4.27;;
17207;SDS011;8720;48.488;9.202;2024-01-15T13:32:33;7.70;;;5.03;;
17207;SDS011;8720;48.488;9.202;2024-01-15T13:35:01;5.90;;;4.70;;
17207;SDS011;8720;48.488;9.202;2024-01-15T13:37:31;7.43;;;4.10;;
17207;SDS011;8720;48.488;9.202;2024-01-15T13:39:58;6.57;;;4.60;;
17207;SDS011;8720;48.488;9.202;2024-01-15T13:42:26;8.53;;;5.00;;
17207;SDS011;8720;48.488;9.202;2024-01-15T13:44:53;7.20;;;4.77;;
17207;SDS011;8720;48.488;9.202;2024-01-15T13:47:21;6.73;;;4.80;;
17207;SDS011;8720;48.488;9.202;2024-01-15T13:49:50;9.60;;;5.53;;
17207;SDS011;8720;48.488;9.202;2024-01-15T13:52:19;6.27;;;4.60;;
17207;SDS011;8720;48.488;9.202;2024-01-15T13:54:46;5.70;;;4.20;;
17207;SDS011;8720;48.488;9.202;2024-01-15T13:57:14;10.03;;;5.20;;
17207;SDS011;8720;48.488;9.202;2024-01-15T13:59:41;8.60;;;4.90;;
17207;SDS011;8720;48.488;9.202;2024-01-15T14:02:09;6.67;;;4.80;;
17207;SDS011;8720;48.488;9.202;2024-01-15T14:04:37;7.70;;;6.27;;
17207;SDS011;8720;48.488;9.202;2024-01-15T14:07:08;7.53;;;4.57;;
17207;SDS011;8720;48.488;9.202;2024-01-15T14:09:35;6.33;;;4.37;;
17207;SDS011;8720;48.488;9.202;2024-01-15T14:12:03;10.13;;;5.57;;
17207;SDS011;8720;48.488;9.202;2024-01-15T14:14:32;9.00;;;5.33;;
17207;SDS011;8720;48.488;9.202;2024-01-15T14:17:00;8.90;;;5.37;;
17207;SDS011;8720;48.488;9.202;2024-01-15T14:19:28;7.67;;;5.63;;
17207;SDS011;8720;48.488;9.202;2024-01-15T14:21:56;11.87;;;6.20;;
17207;SDS011;8720;48.488;9.202;2024-01-15T14:24:25;9.27;;;5.60;;
17207;SDS011;8720;48.488;9.202;2024-01-15T14:26:53;6.70;;;5.07;;
17207;SDS011;8720;48.488;9.202;2024-01-15T14:29:22;11.43;;;6.93;;
17207;SDS011;8720;48.488;9.202;2024-01-15T14:31:51;8.53;;;5.80;;
17207;SDS011;8720;48.488;9.202;2024-01-15T14:34:19;11.93;;;5.87;;
17207;SDS011;8720;48.488;9.202;2024-01-15T14:36:48;9.60;;;5.90;;
17207;SDS011;8720;48.488;9.202;2024-01-15T14:39:19;8.10;;;6.20;;
17207;SDS011;8720;48.488;9.202;2024-01-15T14:41:48;9.03;;;5.63;;
17207;SDS011;8720;48.488;9.202;2024-01-15T14:44:19;10.07;;;5.90;;
17207;SDS011;8720;48.488;9.202;2024-01-15T14:46:48;8.30;;;6.20;;
17207;SDS011;8720;48.488;9.202;2024-01-15T14:49:16;9.07;;;6.30;;
17207;SDS011;8720;48.488;9.202;2024-01-15T14:51:43;8.97;;;5.37;;
17207;SDS011;8720;48.488;9.202;2024-01-15T14:54:11;7.23;;;4.70;;
17207;SDS011;8720;48.488;9.202;2024-01-15T14:56:39;10.00;;;5.00;;
17207;SDS011;8720;48.488;9.202;2024-01-15T14:59:09;9.80;;;5.33;;
17207;SDS011;8720;48.488;9.202;2024-01-15T15:01:37;9.77;;;5.50;;
17207;SDS011;8720;48.488;9.202;2024-01-15T15:04:07;7.17;;;5.37;;